sensor_id;sensor_type;location;lat;lon;timestamp;P1;durP1;ratioP1;P2;durP2;ratioP2
23496;SDS011;11925;48.122;11.560;2023-05-24T00:01:01;6.47;;;4.82;;
23496;SDS011;11925;48.122;11.560;2023-05-24T00:03:29;5.18;;;3.60;;
23496;SDS011;11925;48.122;11.560;2023-05-24T00:06:02;6.28;;;3.70;;
23496;SDS011;11925;48.122;11.560;2023-05-24T00:08:32;4.03;;;3.33;;
23496;SDS011;11925;48.122;11.560;2023-05-24T00:11:00;4.75;;;3.75;;
23496;SDS011;11925;48.122;11.560;2023-05-24T00:13:29;4.03;;;3.42;;
23496;SDS011;11925;48.122;11.560;2023-05-24T00:15:57;5.35;;;3.78;;
23496;SDS011;11925;48.122;11.560;2023-05-24T00:18:25;4.30;;;3.70;;
23496;SDS011;11925;48.122;11.560;2023-05-24T00:20:56;4.53;;;3.22;;
23496;SDS011;11925;48.122;11.560;2023-05-24T00:23:26;4.82;;;3.60;;
23496;SDS011;11925;48.122;11.560;2023-05-24T00:25:54;5.07;;;3.80;;
23496;SDS011;11925;48.122;11.560;2023-05-24T00:28:23;5.53;;;3.70;;
23496;SDS011;11925;48.122;11.560;2023-05-24T00:30:51;5.18;;;3.80;;
23496;SDS011;11925;48.122;11.560;2023-05-24T00:33:19;5.35;;;3.58;;
23496;SDS011;11925;48.122;11.560;2023-05-24T00:35:48;7.03;;;3.60;;
23496;SDS011;11925;48.122;11.560;2023-05-24T00:38:21;4.28;;;3.53;;
23496;SDS011;11925;48.122;11.560;2023-05-24T00:40:53;5.03;;;3.78;;
23496;SDS011;11925;48.122;11.560;2023-05-24T00:43:22;4.53;;;3.60;;
23496;SDS011;11925;48.122;11.560;2023-05-24T00:45:54;5.45;;;3.72;;
23496;SDS011;11925;48.122;11.560;2023-05-24T00:48:39;4.45;;;3.63;;
23496;SDS011;11925;48.122;11.560;2023-05-24T00:51:08;4.20;;;3.80;;
23496;SDS011;11925;48.122;11.560;2023-05-24T00:53:38;6.63;;;3.92;;
23496;SDS011;11925;48.122;11.560;2023-05-24T00:56:09;4.57;;;3.88;;
23496;SDS011;11925;48.122;11.560;2023-05-24T00:58:39;5.00;;;3.72;;
23496;SDS011;11925;48.122;11.560;2023-05-24T01:01:09;6.00;;;4.00;;
23496;SDS011;11925;48.122;11.560;2023-05-24T01:03:37;4.55;;;3.60;;
23496;SDS011;11925;48.122;11.560;2023-05-24T01:06:07;5.18;;;4.07;;
23496;SDS011;11925;48.122;11.560;2023-05-24T01:08:41;5.03;;;4.28;;
23496;SDS011;11925;48.122;11.560;2023-05-24T01:11:20;5.03;;;3.97;;
23496;SDS011;11925;48.122;11.560;2023-05-24T01:13:57;4.63;;;4.10;;
23496;SDS011;11925;48.122;11.560;2023-05-24T01:16:35;7.38;;;4.45;;
23496;SDS011;11925;48.122;11.560;2023-05-24T01:19:19;5.20;;;4.03;;
23496;SDS011;11925;48.122;11.560;2023-05-24T01:22:17;6.07;;;4.35;;
23496;SDS011;11925;48.122;11.560;2023-05-24T01:24:58;5.90;;;4.30;;
23496;SDS011;11925;48.122;11.560;2023-05-24T01:27:32;6.03;;;4.35;;
23496;SDS011;11925;48.122;11.560;2023-05-24T01:30:02;5.88;;;4.50;;
23496;SDS011;11925;48.122;11.560;2023-05-24T01:32:31;7.25;;;4.93;;
23496;SDS011;11925;48.122;11.560;2023-05-24T01:35:00;6.63;;;4.78;;
23496;SDS011;11925;48.122;11.560;2023-05-24T01:37:28;5.90;;;4.25;;
23496;SDS011;11925;48.122;11.560;2023-05-24T01:39:57;6.85;;;4.57;;
23496;SDS011;11925;48.122;11.560;2023-05-24T01:42:26;7.13;;;5.00;;
23496;SDS011;11925;48.122;11.560;2023-05-24T01:45:05;5.40;;;4.57;;
23496;SDS011;11925;48.122;11.560;2023-05-24T01:47:41;6.78;;;4.65;;
23496;SDS011;11925;48.122;11.560;2023-05-24T01:50:21;6.80;;;4.90;;
23496;SDS011;11925;48.122;11.560;2023-05-24T01:52:53;7.65;;;4.88;;
23496;SDS011;11925;48.122;11.560;2023-05-24T01:55:24;6.73;;;5.33;;
23496;SDS011;11925;48.122;11.560;2023-05-24T01:57:57;7.85;;;4.75;;
23496;SDS011;11925;48.122;11.560;2023-05-24T02:00:28;6.85;;;4.90;;
23496;SDS011;11925;48.122;11.560;2023-05-24T02:02:59;6.72;;;5.10;;
23496;SDS011;11925;48.122;11.560;2023-05-24T02:05:30;5.70;;;4.57;;
23496;SDS011;11925;48.122;11.560;2023-05-24T02:08:04;6.80;;;5.15;;
23496;SDS011;11925;48.122;11.560;2023-05-24T02:10:32;7.18;;;5.43;;
23496;SDS011;11925;48.122;11.560;2023-05-24T02:13:05;8.18;;;5.43;;
23496;SDS011;11925;48.122;11.560;2023-05-24T02:15:34;6.20;;;5.03;;
23496;SDS011;11925;48.122;11.560;2023-05-24T02:18:02;6.68;;;4.80;;
23496;SDS011;11925;48.122;11.560;2023-05-24T02:20:33;6.85;;;5.18;;
23496;SDS011;11925;48.122;11.560;2023-05-24T02:23:03;6.82;;;4.95;;
23496;SDS011;11925;48.122;11.560;2023-05-24T02:25:31;7.00;;;5.10;;
23496;SDS011;11925;48.122;11.560;2023-05-24T02:28:00;7.15;;;5.32;;
23496;SDS011;11925;48.122;11.560;2023-05-24T02:30:30;7.75;;;5.05;;
23496;SDS011;11925;48.122;11.560;2023-05-24T02:32:59;6.28;;;4.60;;
23496;SDS011;11925;48.122;11.560;2023-05-24T02:35:27;7.03;;;4.97;;
23496;SDS011;11925;48.122;11.560;2023-05-24T02:37:56;6.50;;;5.13;;
23496;SDS011;11925;48.122;11.560;2023-05-24T02:40:24;6.88;;;5.25;;
23496;SDS011;11925;48.122;11.560;2023-05-24T02:42:52;6.20;;;5.13;;
23496;SDS011;11925;48.122;11.560;2023-05-24T02:45:20;6.43;;;5.07;;
23496;SDS011;11925;48.122;11.560;2023-05-24T02:47:50;7.32;;;5.28;;
23496;SDS011;11925;48.122;11.560;2023-05-24T02:50:19;6.80;;;5.05;;
23496;SDS011;11925;48.122;11.560;2023-05-24T02:52:47;5.90;;;4.85;;
23496;SDS011;11925;48.122;11.560;2023-05-24T02:55:16;6.97;;;4.75;;
23496;SDS011;11925;48.122;11.560;2023-05-24T02:57:44;6.88;;;4.97;;
23496;SDS011;11925;48.122;11.560;2023-05-24T03:00:14;6.38;;;5.00;;
23496;SDS011;11925;48.122;11.560;2023-05-24T03:02:44;6.57;;;5.13;;
23496;SDS011;11925;48.122;11.560;2023-05-24T03:05:18;6.93;;;5.25;;
23496;SDS011;11925;48.122;11.560;2023-05-24T03:07:46;7.10;;;4.95;;
23496;SDS011;11925;48.122;11.560;2023-05-24T03:10:15;8.30;;;5.47;;
23496;SDS011;11925;48.122;11.560;2023-05-24T03:12:43;7.00;;;5.03;;
23496;SDS011;11925;48.122;11.560;2023-05-24T03:15:11;8.23;;;5.32;;
23496;SDS011;11925;48.122;11.560;2023-05-24T03:17:40;6.68;;;5.43;;
23496;SDS011;11925;48.122;11.560;2023-05-24T03:20:08;6.53;;;5.28;;
23496;SDS011;11925;48.122;11.560;2023-05-24T03:22:40;7.10;;;5.03;;
23496;SDS011;11925;48.122;11.560;2023-05-24T03:25:08;8.30;;;5.20;;
23496;SDS011;11925;48.122;11.560;2023-05-24T03:27:37;7.05;;;5.85;;
23496;SDS011;11925;48.122;11.560;2023-05-24T03:30:06;8.82;;;5.28;;
23496;SDS011;11925;48.122;11.560;2023-05-24T03:32:44;8.70;;;5.93;;
23496;SDS011;11925;48.122;11.560;2023-05-24T03:35:12;6.90;;;5.18;;
23496;SDS011;11925;48.122;11.560;2023-05-24T03:37:42;7.60;;;5.70;;
23496;SDS011;11925;48.122;11.560;2023-05-24T03:40:10;8.20;;;6.28;;
23496;SDS011;11925;48.122;11.560;2023-05-24T03:42:54;8.25;;;6.00;;
23496;SDS011;11925;48.122;11.560;2023-05-24T03:45:40;6.95;;;5.50;;
23496;SDS011;11925;48.122;11.560;2023-05-24T03:48:08;7.43;;;5.68;;
23496;SDS011;11925;48.122;11.560;2023-05-24T03:50:37;8.43;;;5.68;;
23496;SDS011;11925;48.122;11.560;2023-05-24T03:53:07;7.72;;;5.25;;
23496;SDS011;11925;48.122;11.560;2023-05-24T03:55:36;7.40;;;5.68;;
23496;SDS011;11925;48.122;11.560;2023-05-24T03:58:05;7.45;;;6.00;;
23496;SDS011;11925;48.122;11.560;2023-05-24T04:00:34;7.97;;;6.00;;
23496;SDS011;11925;48.122;11.560;2023-05-24T04:03:02;6.78;;;5.60;;
23496;SDS011;11925;48.122;11.560;2023-05-24T04:05:32;8.43;;;5.40;;
23496;SDS011;11925;48.122;11.560;2023-05-24T04:08:00;8.57;;;5.72;;
23496;SDS011;11925;48.122;11.560;2023-05-24T04:10:31;8.05;;;5.57;;
23496;SDS011;11925;48.122;11.560;2023-05-24T04:12:59;8.02;;;5.45;;
23496;SDS011;11925;48.122;11.560;2023-05-24T04:15:27;7.70;;;5.53;;
23496;SDS011;11925;48.122;11.560;2023-05-24T04:17:56;7.40;;;5.63;;
23496;SDS011;11925;48.122;11.560;2023-05-24T04:20:26;6.93;;;5.47;;
23496;SDS011;11925;48.122;11.560;2023-05-24T04:22:55;7.88;;;5.28;;
23496;SDS011;11925;48.122;11.560;2023-05-24T04:25:23;7.82;;;5.93;;
23496;SDS011;11925;48.122;11.560;2023-05-24T04:27:54;6.80;;;5.55;;
23496;SDS011;11925;48.122;11.560;2023-05-24T04:30:23;6.90;;;5.43;;
23496;SDS011;11925;48.122;11.560;2023-05-24T04:32:51;9.05;;;5.95;;
23496;SDS011;11925;48.122;11.560;2023-05-24T04:35:20;8.13;;;5.57;;
23496;SDS011;11925;48.122;11.560;2023-05-24T04:37:48;8.73;;;6.15;;
23496;SDS011;11925;48.122;11.560;2023-05-24T04:40:18;8.70;;;5.50;;
23496;SDS011;11925;48.122;11.560;2023-05-24T04:42:48;7.75;;;5.72;;
23496;SDS011;11925;48.122;11.560;2023-05-24T04:45:18;7.78;;;6.13;;
23496;SDS011;11925;48.122;11.560;2023-05-24T04:47:46;8.30;;;5.68;;
23496;SDS011;11925;48.122;11.560;2023-05-24T04:50:15;8.15;;;5.93;;
23496;SDS011;11925;48.122;11.560;2023-05-24T04:52:43;10.52;;;6.40;;
23496;SDS011;11925;48.122;11.560;2023-05-24T04:55:12;9.07;;;5.53;;
23496;SDS011;11925;48.122;11.560;2023-05-24T04:57:40;9.30;;;6.00;;
23496;SDS011;11925;48.122;11.560;2023-05-24T05:00:09;9.35;;;6.22;;
23496;SDS011;11925;48.122;11.560;2023-05-24T05:02:40;18.73;;;13.18;;
23496;SDS011;11925;48.122;11.560;2023-05-24T05:05:08;21.63;;;12.70;;
23496;SDS011;11925;48.122;11.560;2023-05-24T05:07:38;22.30;;;12.98;;
23496;SDS011;11925;48.122;11.560;2023-05-24T05:10:06;14.98;;;10.40;;
23496;SDS011;11925;48.122;11.560;2023-05-24T05:12:35;14.55;;;9.85;;
23496;SDS011;11925;48.122;11.560;2023-05-24T05:15:04;15.60;;;8.68;;
23496;SDS011;11925;48.122;11.560;2023-05-24T05:17:33;11.52;;;8.60;;
23496;SDS011;11925;48.122;11.560;2023-05-24T05:20:04;11.75;;;7.88;;
23496;SDS011;11925;48.122;11.560;2023-05-24T05:22:33;11.77;;;7.70;;
23496;SDS011;11925;48.122;11.560;2023-05-24T05:25:02;10.25;;;7.30;;
23496;SDS011;11925;48.122;11.560;2023-05-24T05:27:30;12.60;;;7.03;;
23496;SDS011;11925;48.122;11.560;2023-05-24T05:29:59;10.82;;;6.70;;
23496;SDS011;11925;48.122;11.560;2023-05-24T05:32:27;9.38;;;6.32;;
23496;SDS011;11925;48.122;11.560;2023-05-24T05:34:55;9.02;;;6.50;;
23496;SDS011;11925;48.122;11.560;2023-05-24T05:37:25;10.57;;;6.57;;
23496;SDS011;11925;48.122;11.560;2023-05-24T05:39:53;9.15;;;6.22;;
23496;SDS011;11925;48.122;11.560;2023-05-24T05:42:22;7.35;;;5.20;;
23496;SDS011;11925;48.122;11.560;2023-05-24T05:44:50;7.97;;;5.40;;
23496;SDS011;11925;48.122;11.560;2023-05-24T05:47:18;9.40;;;5.72;;
23496;SDS011;11925;48.122;11.560;2023-05-24T05:49:47;9.00;;;5.50;;
23496;SDS011;11925;48.122;11.560;2023-05-24T05:52:15;7.00;;;5.07;;
23496;SDS011;11925;48.122;11.560;2023-05-24T05:54:45;8.43;;;5.55;;
23496;SDS011;11925;48.122;11.560;2023-05-24T05:57:13;9.75;;;5.50;;
23496;SDS011;11925;48.122;11.560;2023-05-24T05:59:41;8.48;;;5.60;;
23496;SDS011;11925;48.122;11.560;2023-05-24T06:02:10;6.38;;;4.88;;
23496;SDS011;11925;48.122;11.560;2023-05-24T06:04:38;7.35;;;5.10;;
23496;SDS011;11925;48.122;11.560;2023-05-24T06:07:07;7.30;;;4.68;;
23496;SDS011;11925;48.122;11.560;2023-05-24T06:09:35;7.32;;;4.90;;
23496;SDS011;11925;48.122;11.560;2023-05-24T06:12:05;7.07;;;5.10;;
23496;SDS011;11925;48.122;11.560;2023-05-24T06:14:33;8.45;;;5.55;;
23496;SDS011;11925;48.122;11.560;2023-05-24T06:17:03;8.40;;;5.40;;
23496;SDS011;11925;48.122;11.560;2023-05-24T06:19:32;7.53;;;5.13;;
23496;SDS011;11925;48.122;11.560;2023-05-24T06:22:00;9.98;;;5.75;;
23496;SDS011;11925;48.122;11.560;2023-05-24T06:24:28;7.85;;;5.50;;
23496;SDS011;11925;48.122;11.560;2023-05-24T06:27:00;9.18;;;5.78;;
23496;SDS011;11925;48.122;11.560;2023-05-24T06:29:32;9.70;;;5.80;;
23496;SDS011;11925;48.122;11.560;2023-05-24T06:32:00;7.85;;;5.78;;
23496;SDS011;11925;48.122;11.560;2023-05-24T06:34:29;7.70;;;5.65;;
23496;SDS011;11925;48.122;11.560;2023-05-24T06:36:57;9.60;;;6.03;;
23496;SDS011;11925;48.122;11.560;2023-05-24T06:39:25;8.00;;;5.97;;
23496;SDS011;11925;48.122;11.560;2023-05-24T06:41:54;9.30;;;6.22;;
23496;SDS011;11925;48.122;11.560;2023-05-24T06:44:23;9.43;;;6.57;;
23496;SDS011;11925;48.122;11.560;2023-05-24T06:46:58;8.80;;;6.65;;
23496;SDS011;11925;48.122;11.560;2023-05-24T06:49:27;9.15;;;6.22;;
23496;SDS011;11925;48.122;11.560;2023-05-24T06:51:55;10.05;;;7.03;;
23496;SDS011;11925;48.122;11.560;2023-05-24T06:54:24;8.30;;;6.43;;
23496;SDS011;11925;48.122;11.560;2023-05-24T06:56:52;9.13;;;6.93;;
23496;SDS011;11925;48.122;11.560;2023-05-24T06:59:21;12.38;;;8.00;;
23496;SDS011;11925;48.122;11.560;2023-05-24T07:01:49;14.38;;;9.45;;
23496;SDS011;11925;48.122;11.560;2023-05-24T07:04:26;12.98;;;8.88;;
23496;SDS011;11925;48.122;11.560;2023-05-24T07:06:55;11.10;;;8.07;;
23496;SDS011;11925;48.122;11.560;2023-05-24T07:09:25;9.70;;;7.60;;
23496;SDS011;11925;48.122;11.560;2023-05-24T07:11:54;11.07;;;7.80;;
23496;SDS011;11925;48.122;11.560;2023-05-24T07:14:22;11.40;;;8.02;;
23496;SDS011;11925;48.122;11.560;2023-05-24T07:16:51;13.23;;;8.07;;
23496;SDS011;11925;48.122;11.560;2023-05-24T07:19:23;12.50;;;8.05;;
23496;SDS011;11925;48.122;11.560;2023-05-24T07:21:56;12.00;;;8.45;;
23496;SDS011;11925;48.122;11.560;2023-05-24T07:24:24;12.65;;;8.07;;
23496;SDS011;11925;48.122;11.560;2023-05-24T07:26:53;11.85;;;7.75;;
23496;SDS011;11925;48.122;11.560;2023-05-24T07:29:22;11.52;;;8.18;;
23496;SDS011;11925;48.122;11.560;2023-05-24T07:31:51;11.10;;;7.60;;
23496;SDS011;11925;48.122;11.560;2023-05-24T07:34:21;12.10;;;7.90;;
23496;SDS011;11925;48.122;11.560;2023-05-24T07:36:53;10.10;;;7.20;;
23496;SDS011;11925;48.122;11.560;2023-05-24T07:39:24;11.50;;;8.05;;
23496;SDS011;11925;48.122;11.560;2023-05-24T07:41:52;10.93;;;7.75;;
23496;SDS011;11925;48.122;11.560;2023-05-24T07:44:21;11.85;;;7.80;;
23496;SDS011;11925;48.122;11.560;2023-05-24T07:46:49;11.38;;;7.88;;
23496;SDS011;11925;48.122;11.560;2023-05-24T07:49:18;11.20;;;8.30;;
23496;SDS011;11925;48.122;11.560;2023-05-24T07:51:47;11.48;;;8.05;;
23496;SDS011;11925;48.122;11.560;2023-05-24T07:54:15;9.73;;;7.25;;
23496;SDS011;11925;48.122;11.560;2023-05-24T07:56:45;9.45;;;7.38;;
23496;SDS011;11925;48.122;11.560;2023-05-24T07:59:13;8.82;;;6.97;;
23496;SDS011;11925;48.122;11.560;2023-05-24T08:01:42;9.65;;;6.97;;
23496;SDS011;11925;48.122;11.560;2023-05-24T08:04:10;8.77;;;6.72;;
23496;SDS011;11925;48.122;11.560;2023-05-24T08:06:39;12.05;;;7.43;;
23496;SDS011;11925;48.122;11.560;2023-05-24T08:09:07;10.05;;;7.35;;
23496;SDS011;11925;48.122;11.560;2023-05-24T08:11:35;11.40;;;7.72;;
23496;SDS011;11925;48.122;11.560;2023-05-24T08:14:05;11.20;;;7.53;;
23496;SDS011;11925;48.122;11.560;2023-05-24T08:16:33;11.57;;;7.88;;
23496;SDS011;11925;48.122;11.560;2023-05-24T08:19:01;9.30;;;6.72;;
23496;SDS011;11925;48.122;11.560;2023-05-24T08:21:30;9.23;;;6.47;;
23496;SDS011;11925;48.122;11.560;2023-05-24T08:23:59;10.48;;;7.03;;
23496;SDS011;11925;48.122;11.560;2023-05-24T08:26:27;9.55;;;7.13;;
23496;SDS011;11925;48.122;11.560;2023-05-24T08:28:55;10.82;;;7.22;;
23496;SDS011;11925;48.122;11.560;2023-05-24T08:31:25;9.38;;;7.03;;
23496;SDS011;11925;48.122;11.560;2023-05-24T08:33:54;9.15;;;7.40;;
23496;SDS011;11925;48.122;11.560;2023-05-24T08:36:23;12.63;;;8.48;;
23496;SDS011;11925;48.122;11.560;2023-05-24T08:38:51;11.43;;;7.95;;
23496;SDS011;11925;48.122;11.560;2023-05-24T08:41:20;12.35;;;9.10;;
23496;SDS011;11925;48.122;11.560;2023-05-24T08:43:48;15.57;;;11.13;;
23496;SDS011;11925;48.122;11.560;2023-05-24T08:46:18;20.00;;;13.60;;
23496;SDS011;11925;48.122;11.560;2023-05-24T08:48:48;16.08;;;12.00;;
23496;SDS011;11925;48.122;11.560;2023-05-24T08:51:18;15.23;;;11.35;;
23496;SDS011;11925;48.122;11.560;2023-05-24T08:53:46;13.02;;;11.20;;
23496;SDS011;11925;48.122;11.560;2023-05-24T08:56:17;17.17;;;11.90;;
23496;SDS011;11925;48.122;11.560;2023-05-24T08:58:45;18.50;;;12.50;;
23496;SDS011;11925;48.122;11.560;2023-05-24T09:01:15;15.50;;;12.23;;
23496;SDS011;11925;48.122;11.560;2023-05-24T09:03:44;15.18;;;11.45;;
23496;SDS011;11925;48.122;11.560;2023-05-24T09:06:16;14.60;;;10.77;;
23496;SDS011;11925;48.122;11.560;2023-05-24T09:08:45;16.60;;;11.45;;
23496;SDS011;11925;48.122;11.560;2023-05-24T09:11:18;11.50;;;9.88;;
23496;SDS011;11925;48.122;11.560;2023-05-24T09:13:48;13.25;;;9.98;;
23496;SDS011;11925;48.122;11.560;2023-05-24T09:16:17;10.57;;;8.57;;
23496;SDS011;11925;48.122;11.560;2023-05-24T09:18:45;13.35;;;8.40;;
23496;SDS011;11925;48.122;11.560;2023-05-24T09:21:15;11.70;;;8.57;;
23496;SDS011;11925;48.122;11.560;2023-05-24T09:23:44;11.95;;;8.55;;
23496;SDS011;11925;48.122;11.560;2023-05-24T09:26:12;15.35;;;9.35;;
23496;SDS011;11925;48.122;11.560;2023-05-24T09:28:41;13.23;;;8.35;;
23496;SDS011;11925;48.122;11.560;2023-05-24T09:31:09;12.25;;;8.85;;
23496;SDS011;11925;48.122;11.560;2023-05-24T09:33:39;11.07;;;9.18;;
23496;SDS011;11925;48.122;11.560;2023-05-24T09:36:07;12.63;;;8.13;;
23496;SDS011;11925;48.122;11.560;2023-05-24T09:38:38;12.02;;;7.78;;
23496;SDS011;11925;48.122;11.560;2023-05-24T09:41:07;11.90;;;8.52;;
23496;SDS011;11925;48.122;11.560;2023-05-24T09:43:45;10.85;;;8.65;;
23496;SDS011;11925;48.122;11.560;2023-05-24T09:46:15;13.23;;;8.77;;
23496;SDS011;11925;48.122;11.560;2023-05-24T09:48:54;12.60;;;9.65;;
23496;SDS011;11925;48.122;11.560;2023-05-24T09:51:23;14.85;;;9.48;;
23496;SDS011;11925;48.122;11.560;2023-05-24T09:53:56;11.88;;;9.10;;
23496;SDS011;11925;48.122;11.560;2023-05-24T09:56:27;15.35;;;9.52;;
23496;SDS011;11925;48.122;11.560;2023-05-24T09:58:56;13.65;;;9.40;;
23496;SDS011;11925;48.122;11.560;2023-05-24T10:01:25;12.63;;;9.50;;
23496;SDS011;11925;48.122;11.560;2023-05-24T10:03:54;13.13;;;9.25;;
23496;SDS011;11925;48.122;11.560;2023-05-24T10:06:23;16.05;;;9.82;;
23496;SDS011;11925;48.122;11.560;2023-05-24T10:08:52;12.75;;;8.73;;
23496;SDS011;11925;48.122;11.560;2023-05-24T10:11:23;14.80;;;9.40;;
23496;SDS011;11925;48.122;11.560;2023-05-24T10:13:53;14.70;;;8.63;;
23496;SDS011;11925;48.122;11.560;2023-05-24T10:16:22;14.40;;;9.90;;
23496;SDS011;11925;48.122;11.560;2023-05-24T10:18:50;10.35;;;9.23;;
23496;SDS011;11925;48.122;11.560;2023-05-24T10:21:21;13.15;;;9.80;;
23496;SDS011;11925;48.122;11.560;2023-05-24T10:23:52;13.23;;;9.43;;
23496;SDS011;11925;48.122;11.560;2023-05-24T10:26:27;16.08;;;9.70;;
23496;SDS011;11925;48.122;11.560;2023-05-24T10:29:00;12.00;;;9.70;;
23496;SDS011;11925;48.122;11.560;2023-05-24T10:31:35;15.45;;;9.55;;
23496;SDS011;11925;48.122;11.560;2023-05-24T10:34:05;14.38;;;9.65;;
23496;SDS011;11925;48.122;11.560;2023-05-24T10:36:35;14.00;;;9.55;;
23496;SDS011;11925;48.122;11.560;2023-05-24T10:39:07;15.23;;;9.60;;
23496;SDS011;11925;48.122;11.560;2023-05-24T10:41:39;14.88;;;9.93;;
23496;SDS011;11925;48.122;11.560;2023-05-24T10:44:11;12.88;;;9.88;;
23496;SDS011;11925;48.122;11.560;2023-05-24T10:49:48;15.32;;;9.45;;
23496;SDS011;11925;48.122;11.560;2023-05-24T10:52:18;12.77;;;9.05;;
23496;SDS011;11925;48.122;11.560;2023-05-24T10:55:02;15.15;;;10.13;;
23496;SDS011;11925;48.122;11.560;2023-05-24T10:57:34;15.15;;;9.48;;
23496;SDS011;11925;48.122;11.560;2023-05-24T11:03:00;12.18;;;8.82;;
23496;SDS011;11925;48.122;11.560;2023-05-24T11:05:33;16.95;;;9.32;;
23496;SDS011;11925;48.122;11.560;2023-05-24T11:08:02;20.17;;;12.32;;
23496;SDS011;11925;48.122;11.560;2023-05-24T11:10:35;14.38;;;10.45;;
23496;SDS011;11925;48.122;11.560;2023-05-24T11:13:07;14.88;;;11.15;;
23496;SDS011;11925;48.122;11.560;2023-05-24T11:15:36;14.75;;;10.50;;
23496;SDS011;11925;48.122;11.560;2023-05-24T11:18:14;14.60;;;10.38;;
23496;SDS011;11925;48.122;11.560;2023-05-24T11:20:43;13.32;;;10.05;;
23496;SDS011;11925;48.122;11.560;2023-05-24T11:23:13;15.90;;;9.77;;
23496;SDS011;11925;48.122;11.560;2023-05-24T11:25:42;12.50;;;9.68;;
23496;SDS011;11925;48.122;11.560;2023-05-24T11:28:12;14.65;;;10.45;;
23496;SDS011;11925;48.122;11.560;2023-05-24T11:30:41;13.40;;;10.32;;
23496;SDS011;11925;48.122;11.560;2023-05-24T11:33:14;13.45;;;10.15;;
23496;SDS011;11925;48.122;11.560;2023-05-24T11:35:46;13.20;;;9.68;;
23496;SDS011;11925;48.122;11.560;2023-05-24T11:38:16;14.27;;;10.02;;
23496;SDS011;11925;48.122;11.560;2023-05-24T11:40:50;16.45;;;11.07;;
23496;SDS011;11925;48.122;11.560;2023-05-24T11:43:20;14.20;;;9.88;;
23496;SDS011;11925;48.122;11.560;2023-05-24T11:45:48;16.83;;;10.23;;
23496;SDS011;11925;48.122;11.560;2023-05-24T11:48:18;13.15;;;9.70;;
23496;SDS011;11925;48.122;11.560;2023-05-24T11:50:47;12.73;;;9.45;;
23496;SDS011;11925;48.122;11.560;2023-05-24T11:53:16;16.40;;;9.30;;
23496;SDS011;11925;48.122;11.560;2023-05-24T11:55:46;14.57;;;8.63;;
23496;SDS011;11925;48.122;11.560;2023-05-24T11:58:18;14.68;;;9.95;;
23496;SDS011;11925;48.122;11.560;2023-05-24T12:00:51;17.42;;;9.35;;
23496;SDS011;11925;48.122;11.560;2023-05-24T12:03:20;15.10;;;8.82;;
23496;SDS011;11925;48.122;11.560;2023-05-24T12:05:48;12.35;;;8.60;;
23496;SDS011;11925;48.122;11.560;2023-05-24T12:08:18;13.02;;;8.27;;
23496;SDS011;11925;48.122;11.560;2023-05-24T12:10:47;11.27;;;8.32;;
23496;SDS011;11925;48.122;11.560;2023-05-24T12:13:18;15.73;;;7.97;;
23496;SDS011;11925;48.122;11.560;2023-05-24T12:15:52;15.40;;;8.52;;
23496;SDS011;11925;48.122;11.560;2023-05-24T12:18:23;15.65;;;8.02;;
23496;SDS011;11925;48.122;11.560;2023-05-24T12:20:52;11.88;;;8.20;;
23496;SDS011;11925;48.122;11.560;2023-05-24T12:23:22;13.60;;;8.45;;
23496;SDS011;11925;48.122;11.560;2023-05-24T12:25:56;13.27;;;7.90;;
23496;SDS011;11925;48.122;11.560;2023-05-24T12:28:25;18.10;;;10.32;;
23496;SDS011;11925;48.122;11.560;2023-05-24T12:31:02;14.52;;;7.85;;
23496;SDS011;11925;48.122;11.560;2023-05-24T12:33:32;13.75;;;7.95;;
23496;SDS011;11925;48.122;11.560;2023-05-24T12:36:01;12.15;;;8.10;;
23496;SDS011;11925;48.122;11.560;2023-05-24T12:38:30;17.05;;;8.38;;
23496;SDS011;11925;48.122;11.560;2023-05-24T12:40:58;12.18;;;7.35;;
23496;SDS011;11925;48.122;11.560;2023-05-24T12:43:30;12.30;;;7.15;;
23496;SDS011;11925;48.122;11.560;2023-05-24T12:45:59;12.15;;;6.68;;
23496;SDS011;11925;48.122;11.560;2023-05-24T12:48:29;10.13;;;6.25;;
23496;SDS011;11925;48.122;11.560;2023-05-24T12:50:57;10.07;;;5.93;;
23496;SDS011;11925;48.122;11.560;2023-05-24T12:53:25;14.02;;;6.28;;
23496;SDS011;11925;48.122;11.560;2023-05-24T12:55:54;12.77;;;6.00;;
23496;SDS011;11925;48.122;11.560;2023-05-24T12:58:22;10.23;;;5.80;;
23496;SDS011;11925;48.122;11.560;2023-05-24T13:00:51;11.85;;;5.80;;
23496;SDS011;11925;48.122;11.560;2023-05-24T13:03:20;12.68;;;6.00;;
23496;SDS011;11925;48.122;11.560;2023-05-24T13:05:49;9.43;;;6.35;;
23496;SDS011;11925;48.122;11.560;2023-05-24T13:08:18;12.18;;;6.05;;
23496;SDS011;11925;48.122;11.560;2023-05-24T13:10:47;11.68;;;5.82;;
23496;SDS011;11925;48.122;11.560;2023-05-24T13:13:16;11.95;;;6.45;;
23496;SDS011;11925;48.122;11.560;2023-05-24T13:15:44;11.13;;;6.30;;
23496;SDS011;11925;48.122;11.560;2023-05-24T13:18:13;9.23;;;5.80;;
23496;SDS011;11925;48.122;11.560;2023-05-24T13:20:41;10.18;;;6.65;;
23496;SDS011;11925;48.122;11.560;2023-05-24T13:23:11;13.55;;;6.45;;
23496;SDS011;11925;48.122;11.560;2023-05-24T13:25:40;11.15;;;5.82;;
23496;SDS011;11925;48.122;11.560;2023-05-24T13:28:08;11.60;;;6.30;;
23496;SDS011;11925;48.122;11.560;2023-05-24T13:30:36;11.02;;;6.72;;
23496;SDS011;11925;48.122;11.560;2023-05-24T13:33:05;12.10;;;5.88;;
23496;SDS011;11925;48.122;11.560;2023-05-24T13:35:33;10.35;;;5.50;;
23496;SDS011;11925;48.122;11.560;2023-05-24T13:38:02;9.23;;;5.25;;
23496;SDS011;11925;48.122;11.560;2023-05-24T13:40:31;23.23;;;13.98;;
23496;SDS011;11925;48.122;11.560;2023-05-24T13:42:59;14.40;;;8.13;;
23496;SDS011;11925;48.122;11.560;2023-05-24T13:45:28;15.45;;;8.30;;
23496;SDS011;11925;48.122;11.560;2023-05-24T13:47:58;15.90;;;11.43;;
23496;SDS011;11925;48.122;11.560;2023-05-24T13:50:29;16.63;;;9.73;;
23496;SDS011;11925;48.122;11.560;2023-05-24T13:52:57;12.50;;;7.80;;
23496;SDS011;11925;48.122;11.560;2023-05-24T13:55:27;17.25;;;8.45;;
23496;SDS011;11925;48.122;11.560;2023-05-24T13:57:57;12.20;;;7.90;;
23496;SDS011;11925;48.122;11.560;2023-05-24T14:00:26;15.32;;;8.48;;
23496;SDS011;11925;48.122;11.560;2023-05-24T14:02:57;14.93;;;6.97;;
23496;SDS011;11925;48.122;11.560;2023-05-24T14:05:25;14.60;;;7.68;;
23496;SDS011;11925;48.122;11.560;2023-05-24T14:07:56;14.38;;;7.45;;
23496;SDS011;11925;48.122;11.560;2023-05-24T14:10:29;13.95;;;6.93;;
23496;SDS011;11925;48.122;11.560;2023-05-24T14:12:59;14.15;;;6.72;;
23496;SDS011;11925;48.122;11.560;2023-05-24T14:15:47;12.70;;;7.30;;
23496;SDS011;11925;48.122;11.560;2023-05-24T14:18:16;14.23;;;6.25;;
23496;SDS011;11925;48.122;11.560;2023-05-24T14:20:45;13.07;;;6.70;;
23496;SDS011;11925;48.122;11.560;2023-05-24T14:23:14;11.32;;;6.70;;
23496;SDS011;11925;48.122;11.560;2023-05-24T14:25:43;11.35;;;6.68;;
23496;SDS011;11925;48.122;11.560;2023-05-24T14:28:13;14.07;;;6.70;;
23496;SDS011;11925;48.122;11.560;2023-05-24T14:30:42;14.73;;;7.63;;
23496;SDS011;11925;48.122;11.560;2023-05-24T14:33:10;10.90;;;6.78;;
23496;SDS011;11925;48.122;11.560;2023-05-24T14:35:39;13.02;;;6.28;;
23496;SDS011;11925;48.122;11.560;2023-05-24T14:38:08;9.85;;;6.45;;
23496;SDS011;11925;48.122;11.560;2023-05-24T14:40:37;11.75;;;6.57;;
23496;SDS011;11925;48.122;11.560;2023-05-24T14:43:06;11.35;;;6.55;;
23496;SDS011;11925;48.122;11.560;2023-05-24T14:45:38;10.32;;;6.78;;
23496;SDS011;11925;48.122;11.560;2023-05-24T14:50:38;10.77;;;6.78;;